Terminal Aerodrome Forecast
Issued by NWS Albuquerque, NM

Home | Current Version | Previous Version | Text Only | Print | Product List | Glossary On
Versions: 1 2 3 4 5 6 7 8 9 10 11 12 13 14 15
000
FTUS45 KABQ 281738
TAFABQ
TAF
KABQ 281738Z 2818/2918 10011KT P6SM FEW060
     FM282100 12009KT P6SM FEW100
     FM290100 11012G20KT P6SM VCSH BKN100
     FM290600 09008KT P6SM BKN120
     FM291200 09006KT P6SM FEW120=

USA.gov is the U.S. government's official web portal to all federal, state and local government web resources and services.